Terminal Aerodrome Forecast
Issued by NWS

Home | Current Version | Previous Version | Text Only | Print | Product List | Glossary On
Versions: 1 2 3 4 5 6 7 8 9 10 11 12 13 14 15
000
FTUS45 KPSR 270520
TAFIPL
TAF
KIPL 270520Z 2706/2806 28008KT P6SM SCT250
     FM271700 34014KT P6SM FEW250
     FM280100 27007KT P6SM FEW250=

USA.gov is the U.S. government's official web portal to all federal, state and local government web resources and services.